Time;durP1;ratioP1;P1;durP2;ratioP2;P2;SDS_P1;SDS_P2;PMS_P1;PMS_P2;Temp;Humidity;BMP_temperature;BMP_pressure;BME280_temperature;BME280_humidity;BME280_pressure;Samples;Min_cycle;Max_cycle;Signal;HPM_P1;HPM_P2
2023/08/05 00:02:20;;;;;;;;;;;;;;;26.76;100.00;101546.34;5103101;28;19921;-55
2023/08/05 00:04:46;;;;;;;;;;;;;;;26.92;100.00;101541.56;5098849;28;19916;-56
2023/08/05 00:07:11;;;;;;;;;;;;;;;26.73;100.00;101539.50;5098347;28;19923;-59
2023/08/05 00:09:37;;;;;;;;;;;;;;;26.47;100.00;101534.25;5098531;28;19916;-57
2023/08/05 00:12:02;;;;;;;;;;;;;;;26.55;100.00;101534.75;5098639;28;19927;-56
2023/08/05 00:14:27;;;;;;;;;;;;;;;26.48;100.00;101538.63;5100597;28;19916;-54
2023/08/05 00:16:53;;;;;;;;;;;;;;;26.53;100.00;101536.97;5098956;28;19917;-56
2023/08/05 00:19:18;;;;;;;;;;;;;;;26.34;100.00;101532.19;5097948;28;19916;-58
2023/08/05 00:21:44;;;;;;;;;;;;;;;26.25;100.00;101528.38;5108889;28;19975;-58
2023/08/05 00:24:10;;;;;;;;;;;;;;;26.17;100.00;101527.06;5098510;28;19920;-56
2023/08/05 00:26:35;;;;;;;;;;;;;;;26.05;100.00;101530.13;5098387;28;19999;-55
2023/08/05 00:29:02;;;;;;;;;;;;;;;26.08;100.00;101523.28;5098508;28;19920;-56
2023/08/05 00:31:27;;;;;;;;;;;;;;;25.90;100.00;101523.66;5097010;28;19967;-56
2023/08/05 00:33:53;;;;;;;;;;;;;;;25.85;100.00;101522.88;5114159;28;20023;-57
2023/08/05 00:36:18;;;;;;;;;;;;;;;25.99;100.00;101514.84;5098147;28;19916;-55
2023/08/05 00:38:44;;;;;;;;;;;;;;;26.19;100.00;101513.94;5097904;28;19955;-57
2023/08/05 00:41:09;;;;;;;;;;;;;;;26.27;100.00;101510.56;5080290;28;19924;-57
2023/08/05 00:43:35;;;;;;;;;;;;;;;26.31;100.00;101508.06;5096460;28;19916;-57
2023/08/05 00:46:02;;;;;;;;;;;;;;;26.20;100.00;101513.63;5097767;28;19927;-57
2023/08/05 00:48:29;;;;;;;;;;;;;;;26.24;100.00;101508.41;5082458;28;19917;-59
2023/08/05 00:50:54;;;;;;;;;;;;;;;26.41;100.00;101502.50;5098955;28;19952;-58
2023/08/05 00:53:23;;;;;;;;;;;;;;;26.61;100.00;101504.22;5084351;28;19916;-56
2023/08/05 00:55:52;;;;;;;;;;;;;;;26.44;100.00;101504.66;5083206;28;19917;-54
2023/08/05 00:58:19;;;;;;;;;;;;;;;26.29;100.00;101494.66;5096875;28;19942;-60
2023/08/05 01:00:45;;;;;;;;;;;;;;;26.34;100.00;101493.78;5090421;28;19921;-57
2023/08/05 01:03:10;;;;;;;;;;;;;;;26.01;100.00;101485.22;5095119;28;19919;-56
2023/08/05 01:05:37;;;;;;;;;;;;;;;26.26;100.00;101488.91;5081379;28;19987;-56
2023/08/05 01:08:03;;;;;;;;;;;;;;;26.35;100.00;101489.94;5097414;28;19916;-59
2023/08/05 01:10:28;;;;;;;;;;;;;;;25.83;100.00;101487.53;5097386;28;19924;-54
2023/08/05 01:12:54;;;;;;;;;;;;;;;25.66;100.00;101487.91;5100811;28;19912;-55
2023/08/05 01:15:19;;;;;;;;;;;;;;;25.87;100.00;101488.63;5085960;28;19927;-56
2023/08/05 01:17:45;;;;;;;;;;;;;;;25.94;100.00;101485.53;5107613;28;19923;-57
2023/08/05 01:20:12;;;;;;;;;;;;;;;25.99;100.00;101487.44;5099869;28;19920;-55
2023/08/05 01:22:43;;;;;;;;;;;;;;;25.90;100.00;101482.56;5086067;28;19916;-57
2023/08/05 01:25:23;;;;;;;;;;;;;;;25.82;100.00;101483.16;5096970;28;19916;-54
2023/08/05 01:27:49;;;;;;;;;;;;;;;25.73;100.00;101479.38;5097301;28;19923;-57
2023/08/05 01:30:15;;;;;;;;;;;;;;;25.49;100.00;101474.59;5096821;28;19931;-53
2023/08/05 01:32:41;;;;;;;;;;;;;;;25.26;100.00;101465.06;5120359;28;19951;-59
2023/08/05 01:35:09;;;;;;;;;;;;;;;25.24;100.00;101464.53;5100212;28;19947;-53
2023/08/05 01:37:35;;;;;;;;;;;;;;;25.19;100.00;101466.19;5097184;28;20007;-57
2023/08/05 01:40:02;;;;;;;;;;;;;;;24.94;100.00;101475.31;5096464;28;19917;-57
2023/08/05 01:42:28;;;;;;;;;;;;;;;24.94;100.00;101474.47;5079268;28;19935;-56
2023/08/05 01:44:53;;;;;;;;;;;;;;;25.11;100.00;101479.63;5096178;28;20290;-57
2023/08/05 01:47:19;;;;;;;;;;;;;;;25.07;100.00;101484.84;5078858;28;19927;-55
2023/08/05 01:49:44;;;;;;;;;;;;;;;24.90;100.00;101479.69;5096572;28;19951;-58
2023/08/05 01:52:10;;;;;;;;;;;;;;;24.81;100.00;101478.63;5096608;28;19916;-58
2023/08/05 01:54:35;;;;;;;;;;;;;;;24.90;100.00;101472.31;5095991;28;19917;-57
2023/08/05 01:57:01;;;;;;;;;;;;;;;24.05;100.00;101471.78;5062376;28;19916;-57
2023/08/05 01:59:26;;;;;;;;;;;;;;;24.63;100.00;101469.84;5078748;28;19938;-54
2023/08/05 02:01:53;;;;;;;;;;;;;;;24.98;100.00;101470.09;5079417;28;19920;-56
2023/08/05 02:04:20;;;;;;;;;;;;;;;24.97;100.00;101469.28;5116139;28;19920;-57
2023/08/05 02:06:45;;;;;;;;;;;;;;;24.74;100.00;101471.50;5077911;28;19948;-56
2023/08/05 02:09:11;;;;;;;;;;;;;;;24.84;100.00;101465.22;5095784;28;20464;-56
2023/08/05 02:11:36;;;;;;;;;;;;;;;24.94;100.00;101464.38;5099199;28;19987;-57
2023/08/05 02:14:02;;;;;;;;;;;;;;;25.26;100.00;101471.38;5098505;28;19955;-56
2023/08/05 02:16:27;;;;;;;;;;;;;;;25.41;100.00;101467.75;5095624;28;19923;-57
2023/08/05 02:18:54;;;;;;;;;;;;;;;25.44;100.00;101469.09;5095806;28;19928;-57
2023/08/05 02:21:19;;;;;;;;;;;;;;;25.23;100.00;101465.63;5095614;28;19916;-57
2023/08/05 02:23:44;;;;;;;;;;;;;;;25.21;100.00;101454.97;5078151;28;19931;-59
2023/08/05 02:26:10;;;;;;;;;;;;;;;25.24;100.00;101457.16;5103408;28;19916;-57
2023/08/05 02:28:36;;;;;;;;;;;;;;;25.13;100.00;101450.06;5099614;28;19960;-54
2023/08/05 02:31:02;;;;;;;;;;;;;;;25.20;100.00;101439.66;5095830;28;19927;-56
2023/08/05 02:33:28;;;;;;;;;;;;;;;25.18;100.00;101436.38;5101438;28;19917;-55
2023/08/05 02:35:57;;;;;;;;;;;;;;;25.23;100.00;101443.72;5095701;28;19971;-56
2023/08/05 02:38:22;;;;;;;;;;;;;;;25.31;100.00;101446.72;5077906;28;19923;-56
2023/08/05 02:40:48;;;;;;;;;;;;;;;25.13;100.00;101450.06;5085633;28;19921;-55
2023/08/05 02:43:14;;;;;;;;;;;;;;;25.19;100.00;101448.97;5092467;28;19917;-56
2023/08/05 02:45:39;;;;;;;;;;;;;;;25.15;100.00;101443.22;5080498;28;19978;-57
2023/08/05 02:48:05;;;;;;;;;;;;;;;25.33;100.00;101444.50;5114688;28;19944;-57
2023/08/05 02:50:31;;;;;;;;;;;;;;;25.33;100.00;101447.25;5095730;28;19927;-57
2023/08/05 02:52:56;;;;;;;;;;;;;;;24.90;100.00;101452.31;5095414;28;19921;-55
2023/08/05 02:55:22;;;;;;;;;;;;;;;25.33;100.00;101449.16;5111574;28;19923;-57
2023/08/05 02:57:47;;;;;;;;;;;;;;;25.42;100.00;101446.66;5095290;28;19923;-57
2023/08/05 03:00:13;;;;;;;;;;;;;;;25.46;100.00;101445.00;5077807;28;19950;-58
2023/08/05 03:02:38;;;;;;;;;;;;;;;25.57;100.00;101443.06;5111661;28;19951;-55
2023/08/05 03:05:04;;;;;;;;;;;;;;;25.27;100.00;101428.41;5095409;28;19916;-55
2023/08/05 03:07:30;;;;;;;;;;;;;;;25.19;100.00;101427.88;5095293;28;19955;-51
2023/08/05 03:09:55;;;;;;;;;;;;;;;25.09;100.00;101424.38;5095490;28;19924;-54
2023/08/05 03:12:21;;;;;;;;;;;;;;;24.97;100.00;101422.78;5077500;28;19921;-57
2023/08/05 03:14:47;;;;;;;;;;;;;;;24.89;100.00;101418.69;5085563;28;19939;-54
2023/08/05 03:17:13;;;;;;;;;;;;;;;24.99;100.00;101417.84;5077612;28;19938;-55
2023/08/05 03:19:38;;;;;;;;;;;;;;;24.91;100.00;101413.75;5077931;28;19916;-57
2023/08/05 03:22:05;;;;;;;;;;;;;;;24.83;100.00;101408.03;5111252;28;19979;-55
2023/08/05 03:24:31;;;;;;;;;;;;;;;24.88;100.00;101410.75;5080352;28;19973;-57
2023/08/05 03:26:57;;;;;;;;;;;;;;;24.97;100.00;101402.78;5086116;28;19948;-57
2023/08/05 03:29:23;;;;;;;;;;;;;;;24.99;100.00;101392.38;5077646;28;19920;-57
2023/08/05 03:31:49;;;;;;;;;;;;;;;25.02;100.00;101381.72;5077476;28;19916;-54
2023/08/05 03:34:18;;;;;;;;;;;;;;;25.04;100.00;101386.91;5081430;28;20008;-58
2023/08/05 03:36:44;;;;;;;;;;;;;;;24.95;100.00;101381.22;5083210;28;19920;-57
2023/08/05 03:39:09;;;;;;;;;;;;;;;24.87;100.00;101376.28;5077575;28;19920;-57
2023/08/05 03:41:35;;;;;;;;;;;;;;;25.02;100.00;101378.16;5094828;28;19959;-57
2023/08/05 03:44:04;;;;;;;;;;;;;;;25.06;100.00;101374.56;5095089;28;19920;-57
2023/08/05 03:46:31;;;;;;;;;;;;;;;25.14;100.00;101375.06;5110785;28;19916;-57
2023/08/05 03:48:56;;;;;;;;;;;;;;;25.18;100.00;101382.44;5111102;28;19923;-57
2023/08/05 03:51:22;;;;;;;;;;;;;;;25.02;100.00;101372.66;5110899;28;19916;-57
2023/08/05 03:53:47;;;;;;;;;;;;;;;24.93;100.00;101375.19;5099480;28;19916;-55
2023/08/05 03:56:13;;;;;;;;;;;;;;;24.31;100.00;101370.66;5081028;28;19922;-54
2023/08/05 03:58:40;;;;;;;;;;;;;;;24.56;100.00;101368.16;5111119;28;19920;-57
2023/08/05 04:01:07;;;;;;;;;;;;;;;24.58;100.00;101364.06;5110833;28;19942;-55
2023/08/05 04:03:36;;;;;;;;;;;;;;;24.97;100.00;101359.84;5077372;28;19938;-56
2023/08/05 04:06:01;;;;;;;;;;;;;;;25.02;100.00;101359.81;5094655;28;19912;-56
2023/08/05 04:08:26;;;;;;;;;;;;;;;25.19;100.00;101358.66;5077441;28;20010;-56
2023/08/05 04:10:52;;;;;;;;;;;;;;;25.68;100.00;101365.19;5076932;28;19916;-57
2023/08/05 04:13:18;;;;;;;;;;;;;;;25.48;100.00;101375.19;5094549;28;19917;-56
2023/08/05 04:15:46;;;;;;;;;;;;;;;25.17;100.00;101367.13;5110635;28;19924;-57
2023/08/05 04:18:12;;;;;;;;;;;;;;;25.77;100.00;101362.66;5086366;28;19917;-58
2023/08/05 04:20:40;;;;;;;;;;;;;;;25.48;100.00;101366.16;5080846;28;20016;-58
2023/08/05 04:23:08;;;;;;;;;;;;;;;25.54;100.00;101365.03;5099639;28;19916;-56
2023/08/05 04:25:34;;;;;;;;;;;;;;;25.54;100.00;101354.06;5116280;28;19916;-59
2023/08/05 04:27:59;;;;;;;;;;;;;;;25.69;100.00;101347.66;5098136;28;19930;-55
2023/08/05 04:30:25;;;;;;;;;;;;;;;25.14;100.00;101334.88;5098048;28;19951;-56
2023/08/05 04:32:50;;;;;;;;;;;;;;;25.23;100.00;101335.09;5098232;28;19916;-58
2023/08/05 04:35:16;;;;;;;;;;;;;;;24.44;100.00;101324.75;5098704;28;19916;-54
2023/08/05 04:37:41;;;;;;;;;;;;;;;24.61;100.00;101321.66;5098084;28;19928;-57
2023/08/05 04:40:07;;;;;;;;;;;;;;;25.09;100.00;101312.19;5097728;28;19928;-56
2023/08/05 04:42:33;;;;;;;;;;;;;;;24.71;100.00;101312.59;5098008;28;19956;-56
2023/08/05 04:45:00;;;;;;;;;;;;;;;24.57;100.00;101321.44;5097770;28;19947;-55
2023/08/05 04:47:25;;;;;;;;;;;;;;;24.60;100.00;101317.31;5097840;28;19923;-57
2023/08/05 04:49:51;;;;;;;;;;;;;;;24.76;100.00;101318.09;5097847;28;19916;-57
2023/08/05 04:52:17;;;;;;;;;;;;;;;24.66;100.00;101313.44;5097680;28;19938;-56
2023/08/05 04:54:46;;;;;;;;;;;;;;;24.33;100.00;101305.63;5106940;28;19939;-58
2023/08/05 04:57:12;;;;;;;;;;;;;;;24.48;100.00;101315.72;5097560;28;19980;-55
2023/08/05 04:59:37;;;;;;;;;;;;;;;24.55;100.00;101317.31;5097540;28;19923;-55
2023/08/05 05:02:04;;;;;;;;;;;;;;;24.47;100.00;101316.81;5097562;28;19916;-58
2023/08/05 05:04:29;;;;;;;;;;;;;;;24.44;100.00;101309.16;5099803;28;19917;-55
2023/08/05 05:06:55;;;;;;;;;;;;;;;24.42;100.00;101310.53;5097720;28;19927;-56
2023/08/05 05:09:20;;;;;;;;;;;;;;;24.17;100.00;101318.50;5097155;28;20424;-55
2023/08/05 05:11:46;;;;;;;;;;;;;;;24.46;100.00;101312.44;5097504;28;19916;-55
2023/08/05 05:14:11;;;;;;;;;;;;;;;24.45;100.00;101305.34;5096944;28;19938;-54
2023/08/05 05:16:37;;;;;;;;;;;;;;;24.77;100.00;101301.41;5100955;28;19921;-59
2023/08/05 05:19:02;;;;;;;;;;;;;;;24.25;100.00;101294.47;5099510;28;19952;-57
2023/08/05 05:21:27;;;;;;;;;;;;;;;24.76;100.00;101294.31;5097110;28;19924;-56
2023/08/05 05:23:53;;;;;;;;;;;;;;;24.95;100.00;101296.41;5097091;28;19923;-56
2023/08/05 05:26:19;;;;;;;;;;;;;;;24.74;100.00;101291.00;5105929;28;19923;-56
2023/08/05 05:28:44;;;;;;;;;;;;;;;24.48;100.00;101299.31;5097037;28;19916;-58
2023/08/05 05:31:10;;;;;;;;;;;;;;;24.96;100.00;101300.78;5096513;28;19936;-57
2023/08/05 05:33:36;;;;;;;;;;;;;;;25.02;100.00;101296.91;5097061;28;20019;-56
2023/08/05 05:36:02;;;;;;;;;;;;;;;24.94;100.00;101300.25;5097101;28;19923;-54
2023/08/05 05:38:27;;;;;;;;;;;;;;;24.93;100.00;101304.06;5096936;28;19916;-54
2023/08/05 05:40:54;;;;;;;;;;;;;;;24.47;100.00;101303.16;5096659;28;19920;-56
2023/08/05 05:43:20;;;;;;;;;;;;;;;24.61;100.00;101299.78;5096612;28;19984;-57
2023/08/05 05:45:46;;;;;;;;;;;;;;;24.50;100.00;101293.56;5096746;28;19917;-56
2023/08/05 05:48:12;;;;;;;;;;;;;;;24.74;100.00;101290.16;5107867;28;19952;-54
2023/08/05 05:50:41;;;;;;;;;;;;;;;24.51;100.00;101286.97;5096794;28;19927;-53
2023/08/05 05:53:08;;;;;;;;;;;;;;;24.56;100.00;101283.41;5096571;28;19916;-54
2023/08/05 05:55:33;;;;;;;;;;;;;;;24.59;100.00;101277.38;5084546;28;19916;-57
2023/08/05 05:57:59;;;;;;;;;;;;;;;24.55;100.00;101270.84;5096438;28;19992;-56
2023/08/05 06:00:24;;;;;;;;;;;;;;;24.60;100.00;101273.56;5078941;28;19927;-56
2023/08/05 06:02:50;;;;;;;;;;;;;;;24.19;100.00;101280.00;5096514;28;19923;-55
2023/08/05 06:05:17;;;;;;;;;;;;;;;24.83;100.00;101276.75;5096267;28;19972;-57
2023/08/05 06:07:43;;;;;;;;;;;;;;;24.51;100.00;101273.31;5096247;28;19916;-54
2023/08/05 06:10:09;;;;;;;;;;;;;;;24.39;100.00;101272.84;5096328;28;19921;-55
2023/08/05 06:12:37;;;;;;;;;;;;;;;24.12;100.00;101266.59;5096297;28;19927;-58
2023/08/05 06:15:03;;;;;;;;;;;;;;;24.18;100.00;101270.16;5097198;28;19919;-57
2023/08/05 06:17:28;;;;;;;;;;;;;;;24.21;100.00;101269.59;5096012;28;19920;-58
2023/08/05 06:19:54;;;;;;;;;;;;;;;24.29;100.00;101262.75;5096049;28;19924;-59
2023/08/05 06:22:20;;;;;;;;;;;;;;;24.97;100.00;101275.06;5092235;28;19920;-58
2023/08/05 06:24:46;;;;;;;;;;;;;;;24.75;100.00;101276.25;5102459;28;19917;-58
2023/08/05 06:27:11;;;;;;;;;;;;;;;24.54;100.00;101277.41;5099912;28;19954;-57
2023/08/05 06:29:37;;;;;;;;;;;;;;;24.24;100.00;101276.44;5096116;28;19923;-58
2023/08/05 06:32:02;;;;;;;;;;;;;;;23.90;100.00;101275.91;5095820;28;19916;-58
2023/08/05 06:34:27;;;;;;;;;;;;;;;23.83;100.00;101275.38;5096207;28;19922;-55
2023/08/05 06:36:53;;;;;;;;;;;;;;;24.23;100.00;101277.53;5098774;28;19916;-56
2023/08/05 06:39:18;;;;;;;;;;;;;;;23.86;100.00;101266.63;5096467;28;19916;-58
2023/08/05 06:41:44;;;;;;;;;;;;;;;23.90;100.00;101270.44;5094701;28;19921;-54
2023/08/05 06:44:09;;;;;;;;;;;;;;;23.84;100.00;101263.34;5095592;28;19988;-54
2023/08/05 06:46:35;;;;;;;;;;;;;;;24.28;100.00;101264.66;5097670;28;19924;-55
2023/08/05 06:49:00;;;;;;;;;;;;;;;24.24;100.00;101265.50;5078027;28;19959;-57
2023/08/05 06:51:27;;;;;;;;;;;;;;;24.31;100.00;101261.34;5095447;28;19917;-56
2023/08/05 06:53:52;;;;;;;;;;;;;;;24.85;100.00;101263.63;5095584;28;19916;-57
2023/08/05 06:56:18;;;;;;;;;;;;;;;24.39;100.00;101259.16;5096729;28;19916;-54
2023/08/05 06:58:43;;;;;;;;;;;;;;;24.59;100.00;101256.34;5098407;28;19916;-53
2023/08/05 07:01:09;;;;;;;;;;;;;;;24.69;100.00;101254.66;5095252;28;19983;-56
2023/08/05 07:03:35;;;;;;;;;;;;;;;24.52;100.00;101255.00;5095331;28;19945;-54
2023/08/05 07:06:00;;;;;;;;;;;;;;;24.39;100.00;101243.56;5101145;28;19920;-56
2023/08/05 07:08:27;;;;;;;;;;;;;;;25.19;100.00;101250.00;5095310;28;19916;-56
2023/08/05 07:10:54;;;;;;;;;;;;;;;25.13;100.00;101247.56;5078096;28;19923;-57
2023/08/05 07:13:19;;;;;;;;;;;;;;;25.30;100.00;101256.22;5095145;28;19917;-57
2023/08/05 07:15:45;;;;;;;;;;;;;;;25.80;100.00;101249.78;5097647;28;19927;-56
2023/08/05 07:18:10;;;;;;;;;;;;;;;25.82;100.00;101255.78;5095106;28;19939;-54
2023/08/05 07:20:39;;;;;;;;;;;;;;;25.19;100.00;101247.25;5095094;28;19991;-56
2023/08/05 07:23:04;;;;;;;;;;;;;;;25.27;100.00;101242.31;5095293;28;19924;-55
2023/08/05 07:25:30;;;;;;;;;;;;;;;25.23;100.00;101233.84;5103210;28;19917;-56
2023/08/05 07:27:55;;;;;;;;;;;;;;;25.19;100.00;101232.78;5109742;28;19916;-55
2023/08/05 07:30:21;;;;;;;;;;;;;;;24.90;100.00;101234.31;5097871;28;19924;-59
2023/08/05 07:32:46;;;;;;;;;;;;;;;24.54;100.00;101228.22;5095178;28;19916;-55
2023/08/05 07:35:13;;;;;;;;;;;;;;;24.79;100.00;101235.47;5078366;28;19917;-54
2023/08/05 07:37:39;;;;;;;;;;;;;;;25.71;100.00;101222.19;5106595;28;19984;-57
2023/08/05 07:40:05;;;;;;;;;;;;;;;25.69;100.00;101231.84;5097534;28;19921;-57
2023/08/05 07:42:32;;;;;;;;;;;;;;;24.94;100.00;101222.81;5094865;28;19955;-57
2023/08/05 07:45:01;;;;;;;;;;;;;;;24.85;100.00;101225.31;5094598;28;19951;-54
2023/08/05 07:47:28;;;;;;;;;;;;;;;24.81;100.00;101218.78;5094805;28;19916;-57
2023/08/05 07:49:54;;;;;;;;;;;;;;;24.99;100.00;101220.88;5094799;28;19916;-57
2023/08/05 07:52:20;;;;;;;;;;;;;;;25.46;100.00;101212.28;5089617;28;19928;-58
2023/08/05 07:54:45;;;;;;;;;;;;;;;25.45;100.00;101213.41;5098037;28;19917;-56
2023/08/05 07:57:11;;;;;;;;;;;;;;;25.89;100.00;101215.19;5098306;28;19948;-57
2023/08/05 07:59:36;;;;;;;;;;;;;;;25.31;100.00;101211.31;5098593;28;19916;-58
2023/08/05 08:02:01;;;;;;;;;;;;;;;25.73;100.00;101210.97;5098254;28;19927;-54
2023/08/05 08:04:27;;;;;;;;;;;;;;;25.32;100.00;101204.72;5098622;28;19927;-57
2023/08/05 08:06:53;;;;;;;;;;;;;;;25.85;100.00;101197.72;5098277;28;19938;-58
2023/08/05 08:09:18;;;;;;;;;;;;;;;25.47;100.00;101192.84;5098424;28;19916;-55
2023/08/05 08:11:44;;;;;;;;;;;;;;;25.56;100.00;101206.75;5098482;28;19923;-54
2023/08/05 08:14:09;;;;;;;;;;;;;;;26.24;100.00;101197.81;5098225;28;19928;-55
2023/08/05 08:16:34;;;;;;;;;;;;;;;26.32;100.00;101183.50;5102939;28;19916;-53
2023/08/05 08:19:02;;;;;;;;;;;;;;;26.53;100.00;101177.72;5098146;28;19927;-56
2023/08/05 08:21:27;;;;;;;;;;;;;;;26.47;100.00;101185.19;5098225;28;19926;-54
2023/08/05 08:23:53;;;;;;;;;;;;;;;26.90;100.00;101187.91;5097834;28;19959;-56
2023/08/05 08:26:18;;;;;;;;;;;;;;;26.86;100.00;101173.13;5098103;28;19917;-54
2023/08/05 08:28:44;;;;;;;;;;;;;;;26.29;100.00;101175.81;5100614;28;19940;-57
2023/08/05 08:31:09;;;;;;;;;;;;;;;26.27;100.00;101183.53;5098323;28;19958;-53
2023/08/05 08:33:35;;;;;;;;;;;;;;;27.00;100.00;101183.34;5098079;28;19916;-54
2023/08/05 08:36:00;;;;;;;;;;;;;;;27.73;100.00;101191.19;5106017;28;19916;-56
2023/08/05 08:38:26;;;;;;;;;;;;;;;27.73;100.00;101174.72;5100436;28;20302;-57
2023/08/05 08:40:52;;;;;;;;;;;;;;;27.64;100.00;101166.34;5097771;28;19931;-57
2023/08/05 08:43:21;;;;;;;;;;;;;;;27.62;100.00;101166.66;5113727;28;19924;-57
2023/08/05 08:45:50;;;;;;;;;;;;;;;27.61;100.00;101148.53;5103453;28;19916;-55
2023/08/05 08:48:16;;;;;;;;;;;;;;;27.55;100.00;101157.19;5085743;28;19919;-55
2023/08/05 08:50:42;;;;;;;;;;;;;;;27.74;100.00;101149.66;5097610;28;19916;-57
2023/08/05 08:53:08;;;;;;;;;;;;;;;27.88;100.00;101138.66;5097332;28;19923;-59
2023/08/05 08:55:33;;;;;;;;;;;;;;;27.82;100.00;101156.38;5100042;28;19917;-56
2023/08/05 08:57:59;;;;;;;;;;;;;;;28.07;100.00;101147.94;5110589;28;19974;-57
2023/08/05 09:00:26;;;;;;;;;;;;;;;27.91;100.00;101140.81;5102730;28;19920;-55
2023/08/05 09:02:52;;;;;;;;;;;;;;;28.04;99.78;101135.59;5096829;28;19980;-59
2023/08/05 09:05:18;;;;;;;;;;;;;;;28.32;96.68;101132.81;5096597;28;19917;-57
2023/08/05 09:07:44;;;;;;;;;;;;;;;28.51;93.37;101134.63;5104862;28;19931;-55
2023/08/05 09:10:09;;;;;;;;;;;;;;;28.25;91.82;101125.00;5097451;28;19939;-58
2023/08/05 09:12:35;;;;;;;;;;;;;;;28.12;91.83;101123.09;5096709;28;19962;-56
2023/08/05 09:15:01;;;;;;;;;;;;;;;27.23;95.85;101121.22;5097316;28;19916;-56
2023/08/05 09:17:35;;;;;;;;;;;;;;;27.39;97.79;101115.44;5109372;28;19975;-58
2023/08/05 09:20:04;;;;;;;;;;;;;;;27.53;98.89;101115.47;5097271;28;19928;-56
2023/08/05 09:22:29;;;;;;;;;;;;;;;27.25;100.00;101096.19;5083754;28;19958;-53
2023/08/05 09:24:59;;;;;;;;;;;;;;;28.15;94.09;101098.56;5097049;28;19920;-53
2023/08/05 09:27:25;;;;;;;;;;;;;;;27.54;98.28;101093.22;5092177;28;19923;-53
2023/08/05 09:29:50;;;;;;;;;;;;;;;28.28;93.82;101096.09;5096995;28;19921;-55
2023/08/05 09:32:17;;;;;;;;;;;;;;;28.03;94.09;101093.59;5089063;28;19984;-53
2023/08/05 09:34:43;;;;;;;;;;;;;;;27.44;94.40;101085.13;5096458;28;19923;-57
2023/08/05 09:37:09;;;;;;;;;;;;;;;27.46;96.54;101078.22;5096626;28;19944;-56
2023/08/05 09:39:45;;;;;;;;;;;;;;;27.87;96.64;101081.28;5096898;28;19916;-57
2023/08/05 09:42:24;;;;;;;;;;;;;;;27.85;92.49;101072.53;5096384;28;19916;-55
2023/08/05 09:44:52;;;;;;;;;;;;;;;27.69;90.46;101066.56;5090871;28;19920;-57
2023/08/05 09:47:21;;;;;;;;;;;;;;;28.12;88.36;101057.09;5098859;28;20252;-56
2023/08/05 09:49:50;;;;;;;;;;;;;;;28.07;85.42;101063.53;5096365;28;19916;-55
2023/08/05 09:52:17;;;;;;;;;;;;;;;28.56;83.62;101060.22;5096394;28;19916;-55
2023/08/05 09:54:47;;;;;;;;;;;;;;;28.74;82.50;101061.97;5096077;28;19920;-55
2023/08/05 09:57:14;;;;;;;;;;;;;;;28.93;78.29;101055.47;5097291;28;19934;-54
2023/08/05 09:59:41;;;;;;;;;;;;;;;29.13;76.99;101050.56;5097334;28;19935;-58
2023/08/05 10:02:10;;;;;;;;;;;;;;;28.78;79.15;101059.41;5096333;28;19917;-55
2023/08/05 10:04:36;;;;;;;;;;;;;;;29.33;76.09;101047.22;5096473;28;19919;-56
2023/08/05 10:07:02;;;;;;;;;;;;;;;29.17;77.21;101038.56;5096266;28;19973;-57
2023/08/05 10:09:27;;;;;;;;;;;;;;;29.01;78.33;101026.38;5095930;28;19916;-54
2023/08/05 10:11:53;;;;;;;;;;;;;;;29.31;76.35;101030.22;5095915;28;19927;-57
2023/08/05 10:14:19;;;;;;;;;;;;;;;29.41;76.97;101026.41;5090318;28;19916;-57
2023/08/05 10:16:45;;;;;;;;;;;;;;;28.99;76.30;101026.69;5092780;28;19975;-56
2023/08/05 10:19:11;;;;;;;;;;;;;;;28.51;80.27;101017.16;5098707;28;19921;-55
2023/08/05 10:21:37;;;;;;;;;;;;;;;28.50;80.47;101010.03;5103950;28;19920;-53
2023/08/05 10:24:03;;;;;;;;;;;;;;;28.81;80.98;100998.25;5084489;28;19947;-57
2023/08/05 10:26:42;;;;;;;;;;;;;;;28.54;85.26;101002.78;5072470;28;19917;-56
2023/08/05 10:29:27;;;;;;;;;;;;;;;28.25;87.15;100992.22;5106992;28;19939;-58
2023/08/05 10:32:07;;;;;;;;;;;;;;;27.99;90.20;100995.56;5091579;28;19923;-55
2023/08/05 10:34:32;;;;;;;;;;;;;;;28.45;87.67;100993.66;5086517;28;20064;-57
2023/08/05 10:36:57;;;;;;;;;;;;;;;28.72;85.34;100995.44;5085197;28;19931;-58
2023/08/05 10:39:44;;;;;;;;;;;;;;;27.31;90.71;100996.97;5086431;28;19916;-58
2023/08/05 10:42:34;;;;;;;;;;;;;;;27.40;90.57;101010.78;5093962;28;19988;-55
2023/08/05 10:45:00;;;;;;;;;;;;;;;27.72;91.61;100975.28;5093929;28;19979;-55
2023/08/05 10:47:26;;;;;;;;;;;;;;;28.23;89.94;100983.47;5104056;28;19916;-54
2023/08/05 10:49:56;;;;;;;;;;;;;;;28.22;89.30;100990.09;5099429;28;19916;-56
2023/08/05 10:52:21;;;;;;;;;;;;;;;27.55;100.00;100984.97;5100516;28;19920;-55
2023/08/05 10:54:47;;;;;;;;;;;;;;;27.46;100.00;100981.31;5102223;28;19916;-56
2023/08/05 10:57:43;;;;;;;;;;;;;;;26.19;100.00;100982.22;5100664;28;19920;-54
2023/08/05 11:00:16;;;;;;;;;;;;;;;25.52;100.00;100997.63;5096745;28;19927;-59
2023/08/05 11:02:42;;;;;;;;;;;;;;;25.06;100.00;100979.81;5105915;28;19916;-55
2023/08/05 11:05:08;;;;;;;;;;;;;;;25.57;100.00;100989.34;5097276;28;20003;-57
2023/08/05 11:07:37;;;;;;;;;;;;;;;25.84;100.00;100981.59;5102409;28;19923;-58
2023/08/05 11:10:06;;;;;;;;;;;;;;;26.07;100.00;100982.63;5098754;28;19955;-58
2023/08/05 11:12:32;;;;;;;;;;;;;;;27.58;100.00;100973.38;5097210;28;19934;-57
2023/08/05 11:15:00;;;;;;;;;;;;;;;27.37;100.00;100972.16;5094666;28;19924;-57
2023/08/05 11:17:26;;;;;;;;;;;;;;;26.94;100.00;100967.78;5095626;28;19916;-58
2023/08/05 11:19:56;;;;;;;;;;;;;;;26.91;100.00;100969.19;5077807;28;19987;-54
2023/08/05 11:22:23;;;;;;;;;;;;;;;26.95;100.00;100959.25;5092901;28;19927;-54
2023/08/05 11:24:54;;;;;;;;;;;;;;;27.81;100.00;100934.94;5095261;28;19916;-54
2023/08/05 11:27:19;;;;;;;;;;;;;;;27.31;100.00;100935.75;5094612;28;19917;-58
2023/08/05 11:29:45;;;;;;;;;;;;;;;27.18;100.00;100946.44;5110511;28;19923;-55
2023/08/05 11:32:10;;;;;;;;;;;;;;;26.91;100.00;100936.28;5094605;28;19920;-56
2023/08/05 11:34:36;;;;;;;;;;;;;;;27.32;100.00;100932.69;5094818;28;19922;-56
2023/08/05 11:37:01;;;;;;;;;;;;;;;26.71;100.00;100937.47;5094809;28;19927;-57
2023/08/05 11:39:26;;;;;;;;;;;;;;;26.97;100.00;100924.06;5102923;28;19917;-54
2023/08/05 11:41:52;;;;;;;;;;;;;;;27.74;100.00;100913.41;5094459;28;19920;-57
2023/08/05 11:44:18;;;;;;;;;;;;;;;27.06;100.00;100904.97;5094848;28;19917;-57
2023/08/05 11:46:43;;;;;;;;;;;;;;;27.66;98.58;100908.66;5094934;28;19917;-55
2023/08/05 11:49:09;;;;;;;;;;;;;;;27.10;100.00;100908.72;5099124;28;19923;-57
2023/08/05 11:51:48;;;;;;;;;;;;;;;26.96;100.00;100906.00;5100553;28;19950;-57
2023/08/05 11:54:31;;;;;;;;;;;;;;;27.08;100.00;100896.44;5094616;28;19917;-56
2023/08/05 11:56:57;;;;;;;;;;;;;;;26.88;100.00;100891.06;5094864;28;19935;-55
2023/08/05 11:59:35;;;;;;;;;;;;;;;26.63;100.00;100893.16;5099398;28;19935;-57
2023/08/05 12:02:02;;;;;;;;;;;;;;;26.38;100.00;100893.63;5089360;28;19976;-56
2023/08/05 12:04:27;;;;;;;;;;;;;;;26.72;100.00;100887.78;5091798;28;19917;-54
2023/08/05 12:06:53;;;;;;;;;;;;;;;26.38;100.00;100888.97;5086356;28;19916;-54
2023/08/05 12:09:18;;;;;;;;;;;;;;;26.33;100.00;100900.81;5098768;28;19900;-57
2023/08/05 12:11:44;;;;;;;;;;;;;;;26.34;100.00;100888.75;5094753;28;19916;-55
2023/08/05 12:14:11;;;;;;;;;;;;;;;26.48;98.34;100886.03;5093882;28;19919;-58
2023/08/05 12:16:38;;;;;;;;;;;;;;;26.12;98.34;100883.06;5094412;28;19912;-56
2023/08/05 12:19:03;;;;;;;;;;;;;;;26.15;96.86;100890.69;5093893;28;19927;-56
2023/08/05 12:21:28;;;;;;;;;;;;;;;26.00;93.94;100889.84;5094152;28;19996;-58
2023/08/05 12:23:54;;;;;;;;;;;;;;;26.23;93.55;100883.75;5094484;28;19920;-58
2023/08/05 12:26:25;;;;;;;;;;;;;;;26.33;93.06;100883.59;5083608;28;19921;-57